METAR Data
IDs: Format: Raw Decoded Include TAF

Data at: 1258 UTC 26 Feb 2021

LFSB 261230Z 24008KT 220V290 CAVOK 17/06 Q1029 NOSIG